createdAt,value
2023-05-09T00:00:11.186Z,99963.94
2023-05-09T00:02:39.951Z,99968.63
2023-05-09T00:05:11.298Z,99966.13
2023-05-09T00:07:39.752Z,99967.25
2023-05-09T00:10:09.521Z,99964.75
2023-05-09T00:12:38.032Z,99959.50
2023-05-09T00:15:09.304Z,99954.25
2023-05-09T00:17:39.949Z,99951.50
2023-05-09T00:20:12.429Z,99951.78
2023-05-09T00:22:41.824Z,99946.50
2023-05-09T00:25:12.758Z,99948.72
2023-05-09T00:27:41.243Z,99941.50
2023-05-09T00:30:10.918Z,99943.47
2023-05-09T00:32:40.326Z,99940.16
2023-05-09T00:35:11.493Z,99937.66
2023-05-09T00:37:39.935Z,99937.66
2023-05-09T00:40:10.269Z,99932.69
2023-05-09T00:42:39.111Z,99925.50
2023-05-09T00:45:09.660Z,99936.81
2023-05-09T00:47:39.073Z,99928.78
2023-05-09T00:50:11.142Z,99933.75
2023-05-09T00:52:40.534Z,99931.50
2023-05-09T00:55:10.119Z,99928.19
2023-05-09T00:57:38.626Z,99926.00
2023-05-09T01:00:13.209Z,99931.75
2023-05-09T01:02:43.250Z,99929.28
2023-05-09T01:05:13.554Z,99933.41
2023-05-09T01:07:51.259Z,99926.25
2023-05-09T01:10:30.736Z,99923.19
2023-05-09T01:13:05.848Z,99924.28
2023-05-09T01:15:40.750Z,99918.19
2023-05-09T01:18:18.311Z,99915.44
2023-05-09T01:20:54.521Z,99918.47
2023-05-09T01:24:01.865Z,99915.44
2023-05-09T01:26:45.252Z,99918.44
2023-05-09T01:29:37.544Z,99919.56
2023-05-09T01:32:11.821Z,99923.97
2023-05-09T01:34:42.189Z,99917.34
2023-05-09T01:37:12.323Z,99912.94
2023-05-09T01:39:43.443Z,99924.81
2023-05-09T01:42:14.171Z,99910.44
2023-05-09T01:44:47.063Z,99911.53
2023-05-09T01:47:17.497Z,99909.31
2023-05-09T01:49:47.791Z,99912.09
2023-05-09T01:52:19.614Z,99906.03
2023-05-09T01:54:48.850Z,99916.56
2023-05-09T01:57:19.862Z,99901.63
2023-05-09T01:59:50.933Z,99901.41
2023-05-09T02:02:20.324Z,99901.66
2023-05-09T02:04:50.041Z,99899.47
2023-05-09T02:07:19.014Z,99903.63
2023-05-09T02:09:48.375Z,99901.69
2023-05-09T02:12:16.970Z,99902.53
2023-05-09T02:14:45.466Z,99913.81
2023-05-09T02:17:17.062Z,99906.66
2023-05-09T02:19:45.687Z,99910.25
2023-05-09T02:22:16.057Z,99908.31
2023-05-09T02:24:45.551Z,99906.94
2023-05-09T02:27:15.709Z,99905.25
2023-05-09T02:29:49.249Z,99901.41
2023-05-09T02:32:25.715Z,99909.13
2023-05-09T02:34:55.717Z,99904.97
2023-05-09T02:37:24.773Z,99909.91
2023-05-09T02:39:53.246Z,99907.69
2023-05-09T02:42:25.364Z,99904.09
2023-05-09T02:44:54.099Z,99912.38
2023-05-09T02:47:24.335Z,99902.44
2023-05-09T02:49:52.750Z,99901.34
2023-05-09T02:52:21.497Z,99901.34
2023-05-09T02:54:49.801Z,99908.22
2023-05-09T02:57:18.117Z,99902.13
2023-05-09T02:59:46.435Z,99899.91
2023-05-09T03:02:14.901Z,99902.09
2023-05-09T03:04:44.694Z,99907.34
2023-05-09T03:07:13.687Z,99894.91
2023-05-09T03:09:42.033Z,99900.13
2023-05-09T03:12:10.937Z,99904.25
2023-05-09T03:14:39.323Z,99897.88
2023-05-09T03:17:07.633Z,99901.16
2023-05-09T03:19:36.057Z,99900.59
2023-05-09T03:22:05.803Z,99899.22
2023-05-09T03:24:34.189Z,99897.81
2023-05-09T03:27:02.601Z,99896.41
2023-05-09T03:29:31.007Z,99900.53
2023-05-09T03:31:59.336Z,99896.13
2023-05-09T03:34:27.690Z,99902.72
2023-05-09T03:36:56.165Z,99898.34
2023-05-09T03:39:26.309Z,99905.75
2023-05-09T03:41:54.728Z,99897.50
2023-05-09T03:44:23.139Z,99902.44
2023-05-09T03:46:51.516Z,99908.78
2023-05-09T03:49:19.876Z,99906.03
2023-05-09T03:51:48.274Z,99903.28
2023-05-09T03:54:16.695Z,99903.28
2023-05-09T03:56:46.458Z,99907.13
2023-05-09T03:59:14.792Z,99906.03
2023-05-09T04:01:43.655Z,99906.84
2023-05-09T04:04:12.346Z,99908.53
2023-05-09T04:06:40.851Z,99903.84
2023-05-09T04:09:09.414Z,99900.81
2023-05-09T04:11:37.788Z,99905.25
2023-05-09T04:14:07.510Z,99912.41
2023-05-09T04:16:35.913Z,99909.41
2023-05-09T04:19:04.489Z,99904.44
2023-05-09T04:21:32.997Z,99913.28
2023-05-09T04:24:01.343Z,99913.84
2023-05-09T04:26:31.250Z,99910.81
2023-05-09T04:28:59.654Z,99909.44
2023-05-09T04:31:29.437Z,99906.44
2023-05-09T04:33:58.427Z,99915.28
2023-05-09T04:36:27.649Z,99916.38
2023-05-09T04:38:56.156Z,99910.06
2023-05-09T04:41:25.071Z,99908.72
2023-05-09T04:43:53.629Z,99911.75
2023-05-09T04:46:25.033Z,99913.44
2023-05-09T04:48:55.568Z,99909.63
2023-05-09T04:51:25.317Z,99909.66
2023-05-09T04:53:53.648Z,99907.78
2023-05-09T04:56:22.096Z,99910.03
2023-05-09T04:58:51.444Z,99909.34
2023-05-09T05:01:20.061Z,99906.34
2023-05-09T05:03:48.543Z,99904.69
2023-05-09T05:06:18.324Z,99904.66
2023-05-09T05:08:46.713Z,99898.28
2023-05-09T05:11:15.254Z,99904.66
2023-05-09T05:13:43.654Z,99901.88
2023-05-09T05:16:12.221Z,99907.41
2023-05-09T05:18:40.571Z,99898.88
2023-05-09T05:21:08.976Z,99911.56
2023-05-09T05:23:38.779Z,99907.97
2023-05-09T05:26:07.227Z,99903.00
2023-05-09T05:28:35.969Z,99910.72
2023-05-09T05:31:04.639Z,99905.47
2023-05-09T05:33:33.009Z,99897.72
2023-05-09T05:36:01.441Z,99909.03
2023-05-09T05:38:29.811Z,99901.50
2023-05-09T05:40:59.572Z,99896.78
2023-05-09T05:43:27.961Z,99890.38
2023-05-09T05:45:56.874Z,99888.38
2023-05-09T05:48:25.329Z,99886.38
2023-05-09T05:50:53.713Z,99882.47
2023-05-09T05:53:22.262Z,99879.91
2023-05-09T05:55:50.710Z,99895.38
2023-05-09T05:58:20.570Z,99889.78
2023-05-09T06:00:48.994Z,99887.75
2023-05-09T06:03:17.611Z,99883.81
2023-05-09T06:05:47.782Z,99883.72
2023-05-09T06:08:16.242Z,99885.56
2023-05-09T06:10:44.552Z,99886.91
2023-05-09T06:13:12.987Z,99877.94
2023-05-09T06:15:42.931Z,99871.78
2023-05-09T06:18:11.551Z,99871.97
2023-05-09T06:20:39.978Z,99877.44
2023-05-09T06:23:08.369Z,99870.94
2023-05-09T06:25:36.744Z,99875.56
2023-05-09T06:28:05.556Z,99868.53
2023-05-09T06:30:33.921Z,99859.25
2023-05-09T06:33:03.754Z,99868.06
2023-05-09T06:35:32.096Z,99865.44
2023-05-09T06:38:00.396Z,99865.91
2023-05-09T06:40:28.778Z,99863.59
2023-05-09T06:42:57.224Z,99857.34
2023-05-09T06:45:26.004Z,99856.94
2023-05-09T06:47:54.488Z,99859.00
2023-05-09T06:50:24.534Z,99854.09
2023-05-09T06:52:52.845Z,99848.78
2023-05-09T06:55:21.302Z,99859.78
2023-05-09T06:57:49.675Z,99846.84
2023-05-09T07:00:18.975Z,99847.03
2023-05-09T07:02:47.490Z,99848.25
2023-05-09T07:05:16.388Z,99845.84
2023-05-09T07:07:46.309Z,99845.88
2023-05-09T07:10:14.819Z,99849.88
2023-05-09T07:12:43.335Z,99850.56
2023-05-09T07:15:12.751Z,99844.63
2023-05-09T07:17:41.516Z,99851.22
2023-05-09T07:20:10.884Z,99847.63
2023-05-09T07:22:39.291Z,99845.16
2023-05-09T07:25:11.319Z,99838.97
2023-05-09T07:27:39.790Z,99846.19
2023-05-09T07:30:10.348Z,99839.19
2023-05-09T07:32:38.843Z,99843.41
2023-05-09T07:35:08.068Z,99834.53
2023-05-09T07:37:37.010Z,99823.69
2023-05-09T07:40:07.180Z,99827.72
2023-05-09T07:42:37.253Z,99825.41
2023-05-09T07:45:07.242Z,99819.41
2023-05-09T07:47:35.727Z,99813.59
2023-05-09T07:50:04.205Z,99807.84
2023-05-09T07:52:32.626Z,99816.50
2023-05-09T07:55:01.073Z,99819.16
2023-05-09T07:57:29.521Z,99801.59
2023-05-09T07:59:59.412Z,99808.34
2023-05-09T08:02:27.862Z,99798.53
2023-05-09T08:04:56.387Z,99797.06
2023-05-09T08:07:24.825Z,99795.91
2023-05-09T08:09:53.238Z,99789.06
2023-05-09T08:12:21.668Z,99784.91
2023-05-09T08:14:50.082Z,99799.22
2023-05-09T08:17:19.931Z,99791.16
2023-05-09T08:19:48.351Z,99791.53
2023-05-09T08:22:20.516Z,99779.28
2023-05-09T08:24:49.539Z,99779.69
2023-05-09T08:27:17.963Z,99776.47
2023-05-09T08:29:46.440Z,99781.31
2023-05-09T08:32:15.060Z,99781.50
2023-05-09T08:34:44.841Z,99782.34
2023-05-09T08:37:15.274Z,99781.22
2023-05-09T08:39:44.304Z,99784.50
2023-05-09T08:42:16.100Z,99777.59
2023-05-09T08:44:44.685Z,99776.59
2023-05-09T08:47:13.996Z,99777.22
2023-05-09T08:49:45.467Z,99773.81
2023-05-09T08:52:14.870Z,99771.66
2023-05-09T08:54:44.107Z,99772.97
2023-05-09T08:57:12.533Z,99772.78
2023-05-09T08:59:43.481Z,99762.59
2023-05-09T09:02:15.541Z,99764.22
2023-05-09T09:04:46.126Z,99760.22
2023-05-09T09:07:16.408Z,99751.16
2023-05-09T09:09:47.671Z,99758.53
2023-05-09T09:12:18.752Z,99743.09
2023-05-09T09:14:53.787Z,99744.94
2023-05-09T09:17:28.028Z,99751.34
2023-05-09T09:20:05.687Z,99740.34
2023-05-09T09:22:36.037Z,99738.25
2023-05-09T09:25:06.418Z,99752.72
2023-05-09T09:27:35.579Z,99741.41
2023-05-09T09:30:12.587Z,99738.78
2023-05-09T09:32:41.164Z,99741.75
2023-05-09T09:35:12.908Z,99747.34
2023-05-09T09:37:43.404Z,99742.91
2023-05-09T09:40:14.647Z,99736.50
2023-05-09T09:42:45.008Z,99726.47
2023-05-09T09:45:15.006Z,99723.00
2023-05-09T09:47:45.247Z,99735.66
2023-05-09T09:50:17.630Z,99727.44
2023-05-09T09:52:51.575Z,99727.09
2023-05-09T09:55:20.752Z,99730.16
2023-05-09T09:57:49.920Z,99724.28
2023-05-09T10:00:21.323Z,99716.84
2023-05-09T10:02:54.750Z,99718.00
2023-05-09T10:05:26.539Z,99714.38
2023-05-09T10:07:59.405Z,99720.97
2023-05-09T10:10:30.184Z,99716.06
2023-05-09T10:13:00.335Z,99712.16
2023-05-09T10:15:41.252Z,99707.56
2023-05-09T10:18:18.234Z,99709.69
2023-05-09T10:20:48.813Z,99704.28
2023-05-09T10:23:19.303Z,99690.50
2023-05-09T10:25:56.053Z,99699.03
2023-05-09T10:28:29.109Z,99694.59
2023-05-09T10:31:08.643Z,99691.63
2023-05-09T10:33:47.204Z,99695.44
2023-05-09T10:36:20.630Z,99688.03
2023-05-09T10:38:49.843Z,99682.44
2023-05-09T10:41:19.766Z,99677.19
2023-05-09T10:43:48.475Z,99678.81
2023-05-09T10:46:17.816Z,99665.22
2023-05-09T10:48:48.850Z,99655.97
2023-05-09T10:51:19.241Z,99652.06
2023-05-09T10:53:50.107Z,99645.75
2023-05-09T10:56:26.484Z,99641.91
2023-05-09T10:58:55.719Z,99644.59
2023-05-09T11:01:35.073Z,99642.13
2023-05-09T11:04:11.178Z,99643.25
2023-05-09T11:06:51.228Z,99641.00
2023-05-09T11:09:28.759Z,99627.69
2023-05-09T11:11:58.668Z,99617.19
2023-05-09T11:14:39.215Z,99618.38
2023-05-09T11:17:09.345Z,99602.72
2023-05-09T11:20:06.013Z,99601.31
2023-05-09T11:22:43.752Z,99606.81
2023-05-09T11:25:15.293Z,99599.63
2023-05-09T11:27:46.150Z,99599.56
2023-05-09T11:30:17.282Z,99592.38
2023-05-09T11:32:48.654Z,99591.88
2023-05-09T11:35:19.560Z,99576.41
2023-05-09T11:37:55.002Z,99587.50
2023-05-09T11:40:24.141Z,99580.09
2023-05-09T11:42:57.798Z,99584.22
2023-05-09T11:45:29.872Z,99575.91
2023-05-09T11:47:58.714Z,99574.34
2023-05-09T11:50:27.753Z,99568.44
2023-05-09T11:52:58.533Z,99559.63
2023-05-09T11:55:30.057Z,99565.47
2023-05-09T11:57:59.720Z,99556.19
2023-05-09T12:00:28.239Z,99557.38
2023-05-09T12:02:56.907Z,99552.56
2023-05-09T12:05:25.840Z,99561.06
2023-05-09T12:07:55.204Z,99556.16
2023-05-09T12:10:25.257Z,99549.28
2023-05-09T12:12:55.740Z,99541.94
2023-05-09T12:15:24.581Z,99551.16
2023-05-09T12:18:04.459Z,99537.47
2023-05-09T12:20:43.364Z,99543.16
2023-05-09T12:23:12.737Z,99541.84
2023-05-09T12:25:49.128Z,99544.13
2023-05-09T12:28:18.782Z,99538.97
2023-05-09T12:30:47.769Z,99532.00
2023-05-09T12:33:17.610Z,99534.81
2023-05-09T12:35:48.496Z,99535.53
2023-05-09T12:38:22.501Z,99532.38
2023-05-09T12:41:03.747Z,99525.50
2023-05-09T12:43:34.387Z,99523.94
2023-05-09T12:46:04.049Z,99520.38
2023-05-09T12:48:37.834Z,99513.78
2023-05-09T12:51:06.641Z,99503.47
2023-05-09T12:53:40.746Z,99505.72
2023-05-09T12:56:16.873Z,99493.75
2023-05-09T12:58:51.214Z,99487.03
2023-05-09T13:01:20.522Z,99484.03
2023-05-09T13:03:53.716Z,99475.91
2023-05-09T13:06:22.886Z,99470.00
2023-05-09T13:09:01.212Z,99464.50
2023-05-09T13:11:31.547Z,99457.25
2023-05-09T13:14:00.426Z,99454.81
2023-05-09T13:16:28.965Z,99453.16
2023-05-09T13:18:57.483Z,99451.50
2023-05-09T13:21:26.030Z,99444.16
2023-05-09T13:23:54.518Z,99437.72
2023-05-09T13:26:23.223Z,99446.31
2023-05-09T13:28:53.010Z,99436.91
2023-05-09T13:31:22.805Z,99439.13
2023-05-09T13:33:52.116Z,99444.03
2023-05-09T13:36:21.070Z,99449.50
2023-05-09T13:38:49.476Z,99449.81
2023-05-09T13:41:23.660Z,99440.31
2023-05-09T13:43:53.519Z,99436.13
2023-05-09T13:46:21.873Z,99423.88
2023-05-09T13:48:50.345Z,99422.88
2023-05-09T13:51:18.718Z,99422.06
2023-05-09T13:53:47.481Z,99423.13
2023-05-09T13:56:15.806Z,99418.75
2023-05-09T13:58:44.194Z,99416.16
2023-05-09T14:01:13.935Z,99410.66
2023-05-09T14:03:42.434Z,99411.81
2023-05-09T14:06:15.250Z,99395.88
2023-05-09T14:08:43.896Z,99376.47
2023-05-09T14:11:12.386Z,99380.88
2023-05-09T14:13:41.052Z,99378.16
2023-05-09T14:16:09.646Z,99377.22
2023-05-09T14:18:39.424Z,99369.97
2023-05-09T14:21:08.792Z,99364.94
2023-05-09T14:23:37.280Z,99354.03
2023-05-09T14:26:05.697Z,99367.19
2023-05-09T14:28:34.080Z,99360.16
2023-05-09T14:31:02.671Z,99369.09
2023-05-09T14:33:31.066Z,99368.06
2023-05-09T14:36:02.784Z,99367.38
2023-05-09T14:38:33.004Z,99367.75
2023-05-09T14:41:02.341Z,99363.63
2023-05-09T14:43:30.722Z,99361.63
2023-05-09T14:45:59.064Z,99367.09
2023-05-09T14:48:27.515Z,99361.94
2023-05-09T14:50:57.049Z,99361.19
2023-05-09T14:53:27.438Z,99369.94
2023-05-09T14:55:55.984Z,99363.59
2023-05-09T14:58:24.650Z,99362.72
2023-05-09T15:00:54.707Z,99355.56
2023-05-09T15:03:23.073Z,99353.38
2023-05-09T15:05:51.935Z,99339.88
2023-05-09T15:08:20.273Z,99341.91
2023-05-09T15:10:50.938Z,99334.13
2023-05-09T15:13:19.607Z,99336.75
2023-05-09T15:15:48.056Z,99342.06
2023-05-09T15:18:18.465Z,99326.03
2023-05-09T15:20:46.887Z,99328.69
2023-05-09T15:23:15.364Z,99330.75
2023-05-09T15:25:44.531Z,99332.63
2023-05-09T15:28:14.430Z,99323.66
2023-05-09T15:30:42.901Z,99327.06
2023-05-09T15:33:11.489Z,99326.47
2023-05-09T15:35:39.996Z,99326.81
2023-05-09T15:38:12.130Z,99322.88
2023-05-09T15:40:41.476Z,99327.75
2023-05-09T15:43:09.876Z,99331.81
2023-05-09T15:45:45.243Z,99330.19
2023-05-09T15:48:14.171Z,99325.19
2023-05-09T15:50:43.825Z,99331.03
2023-05-09T15:53:12.439Z,99324.19
2023-05-09T15:55:43.190Z,99328.28
2023-05-09T15:58:11.580Z,99325.16
2023-05-09T16:00:41.314Z,99331.00
2023-05-09T16:03:09.709Z,99319.16
2023-05-09T16:05:40.948Z,99322.22
2023-05-09T16:08:09.448Z,99319.66
2023-05-09T16:10:37.914Z,99320.84
2023-05-09T16:13:06.674Z,99314.25
2023-05-09T16:15:35.225Z,99308.03
2023-05-09T16:18:05.442Z,99313.00
2023-05-09T16:20:33.811Z,99307.56
2023-05-09T16:23:02.200Z,99309.22
2023-05-09T16:25:30.936Z,99304.47
2023-05-09T16:28:00.184Z,99299.75
2023-05-09T16:30:28.782Z,99292.69
2023-05-09T16:32:57.211Z,99297.41
2023-05-09T16:35:27.014Z,99288.88
2023-05-09T16:37:55.432Z,99290.41
2023-05-09T16:40:23.874Z,99283.88
2023-05-09T16:42:53.670Z,99280.28
2023-05-09T16:45:22.102Z,99278.97
2023-05-09T16:47:51.126Z,99280.91
2023-05-09T16:50:19.594Z,99280.09
2023-05-09T16:52:49.959Z,99278.44
2023-05-09T16:55:18.537Z,99274.44
2023-05-09T16:57:46.815Z,99276.88
2023-05-09T17:00:16.736Z,99268.91
2023-05-09T17:02:45.390Z,99264.50
2023-05-09T17:05:13.890Z,99272.19
2023-05-09T17:07:42.339Z,99272.28
2023-05-09T17:10:13.106Z,99267.59
2023-05-09T17:12:42.025Z,99262.50
2023-05-09T17:15:12.003Z,99258.19
2023-05-09T17:17:40.336Z,99257.91
2023-05-09T17:20:11.694Z,99247.28
2023-05-09T17:22:40.403Z,99258.19
2023-05-09T17:25:11.215Z,99256.38
2023-05-09T17:27:41.331Z,99258.91
2023-05-09T17:30:11.258Z,99253.03
2023-05-09T17:32:41.582Z,99263.56
2023-05-09T17:35:12.432Z,99258.53
2023-05-09T17:37:41.009Z,99264.31
2023-05-09T17:40:12.014Z,99262.06
2023-05-09T17:42:40.396Z,99268.66
2023-05-09T17:45:11.745Z,99265.56
2023-05-09T17:47:40.902Z,99261.00
2023-05-09T17:50:10.533Z,99263.50
2023-05-09T17:52:38.889Z,99249.72
2023-05-09T17:55:08.982Z,99246.94
2023-05-09T17:57:38.772Z,99254.66
2023-05-09T18:00:10.208Z,99249.59
2023-05-09T18:02:38.592Z,99259.00
2023-05-09T18:05:10.050Z,99255.91
2023-05-09T18:07:39.764Z,99258.06
2023-05-09T18:10:10.174Z,99249.69
2023-05-09T18:12:39.979Z,99250.22
2023-05-09T18:15:10.458Z,99253.19
2023-05-09T18:17:39.156Z,99248.09
2023-05-09T18:20:09.750Z,99258.16
2023-05-09T18:22:38.183Z,99247.47
2023-05-09T18:25:08.163Z,99259.94
2023-05-09T18:27:36.485Z,99259.28
2023-05-09T18:30:08.077Z,99253.38
2023-05-09T18:32:36.649Z,99257.16
2023-05-09T18:35:05.780Z,99263.22
2023-05-09T18:37:34.123Z,99265.69
2023-05-09T18:40:02.673Z,99270.63
2023-05-09T18:42:31.031Z,99268.00
2023-05-09T18:45:00.903Z,99269.31
2023-05-09T18:47:30.714Z,99272.56
2023-05-09T18:50:01.740Z,99271.91
2023-05-09T18:52:32.234Z,99276.81
2023-05-09T18:55:01.408Z,99286.97
2023-05-09T18:57:31.217Z,99279.59
2023-05-09T19:00:00.281Z,99277.75
2023-05-09T19:02:31.119Z,99284.28
2023-05-09T19:05:06.416Z,99284.44
2023-05-09T19:07:35.084Z,99278.19
2023-05-09T19:10:04.668Z,99286.38
2023-05-09T19:12:34.141Z,99280.94
2023-05-09T19:15:04.402Z,99281.91
2023-05-09T19:17:34.743Z,99277.31
2023-05-09T19:20:03.942Z,99277.16
2023-05-09T19:22:33.615Z,99273.34
2023-05-09T19:25:02.284Z,99275.66
2023-05-09T19:27:30.814Z,99283.84
2023-05-09T19:29:59.969Z,99276.94
2023-05-09T19:32:29.497Z,99276.44
2023-05-09T19:35:00.704Z,99272.66
2023-05-09T19:37:30.374Z,99275.75
2023-05-09T19:39:59.181Z,99274.75
2023-05-09T19:42:27.697Z,99267.88
2023-05-09T19:44:59.169Z,99266.56
2023-05-09T19:47:29.207Z,99268.34
2023-05-09T19:50:02.499Z,99263.75
2023-05-09T19:52:32.318Z,99265.19
2023-05-09T19:55:03.350Z,99259.97
2023-05-09T19:57:31.754Z,99258.91
2023-05-09T20:00:00.413Z,99263.13
2023-05-09T20:02:29.700Z,99261.03
2023-05-09T20:05:00.202Z,99252.47
2023-05-09T20:07:30.224Z,99256.72
2023-05-09T20:09:59.236Z,99248.53
2023-05-09T20:12:30.262Z,99253.91
2023-05-09T20:14:59.578Z,99243.72
2023-05-09T20:17:28.909Z,99243.56
2023-05-09T20:19:58.453Z,99242.53
2023-05-09T20:22:29.334Z,99240.69
2023-05-09T20:24:59.441Z,99241.66
2023-05-09T20:27:28.581Z,99234.78
2023-05-09T20:29:57.720Z,99236.53
2023-05-09T20:32:26.936Z,99228.34
2023-05-09T20:34:56.890Z,99230.13
2023-05-09T20:37:25.895Z,99227.16
2023-05-09T20:39:56.297Z,99222.84
2023-05-09T20:42:26.208Z,99222.66
2023-05-09T20:44:56.188Z,99220.84
2023-05-09T20:47:26.999Z,99222.59
2023-05-09T20:49:58.103Z,99217.97
2023-05-09T20:52:26.959Z,99217.25
2023-05-09T20:54:56.660Z,99209.03
2023-05-09T20:57:25.060Z,99211.66
2023-05-09T20:59:53.401Z,99206.22
2023-05-09T21:02:21.855Z,99197.38
2023-05-09T21:04:50.348Z,99201.59
2023-05-09T21:07:19.565Z,99198.59
2023-05-09T21:09:48.341Z,99190.94
2023-05-09T21:12:18.075Z,99189.09
2023-05-09T21:14:46.459Z,99191.34
2023-05-09T21:17:14.830Z,99195.56
2023-05-09T21:19:43.175Z,99193.94
2023-05-09T21:22:11.523Z,99193.44
2023-05-09T21:24:39.820Z,99188.16
2023-05-09T21:27:08.091Z,99182.63
2023-05-09T21:29:37.837Z,99180.16
2023-05-09T21:32:06.693Z,99181.31
2023-05-09T21:34:35.030Z,99185.22
2023-05-09T21:37:03.312Z,99191.09
2023-05-09T21:39:33.410Z,99177.00
2023-05-09T21:42:01.845Z,99183.16
2023-05-09T21:44:30.109Z,99181.84
2023-05-09T21:47:00.819Z,99186.38
2023-05-09T21:49:29.388Z,99185.03
2023-05-09T21:51:57.845Z,99180.41
2023-05-09T21:54:26.331Z,99184.63
2023-05-09T21:56:54.596Z,99186.41
2023-05-09T21:59:23.253Z,99179.84
2023-05-09T22:01:51.660Z,99181.59
2023-05-09T22:04:21.383Z,99175.00
2023-05-09T22:06:49.712Z,99171.19
2023-05-09T22:09:17.977Z,99175.38
2023-05-09T22:11:46.418Z,99179.09
2023-05-09T22:14:14.773Z,99162.25
2023-05-09T22:16:43.149Z,99168.41
2023-05-09T22:19:11.529Z,99168.75
2023-05-09T22:21:41.269Z,99176.22
2023-05-09T22:24:09.886Z,99174.91
2023-05-09T22:26:38.196Z,99172.44
2023-05-09T22:29:06.450Z,99171.63
2023-05-09T22:31:34.792Z,99168.34
2023-05-09T22:34:03.644Z,99165.06
2023-05-09T22:36:32.158Z,99160.94
2023-05-09T22:39:01.855Z,99160.44
2023-05-09T22:41:30.144Z,99169.03
2023-05-09T22:43:58.457Z,99164.63
2023-05-09T22:46:26.832Z,99162.97
2023-05-09T22:48:55.165Z,99158.88
2023-05-09T22:51:24.033Z,99156.41
2023-05-09T22:53:52.395Z,99156.75
2023-05-09T22:56:22.294Z,99157.84
2023-05-09T22:58:50.885Z,99151.78
2023-05-09T23:01:19.272Z,99146.84
2023-05-09T23:03:47.641Z,99138.03
2023-05-09T23:06:16.102Z,99134.75
2023-05-09T23:08:44.485Z,99134.75
2023-05-09T23:11:12.982Z,99146.16
2023-05-09T23:13:43.091Z,99140.09
2023-05-09T23:16:11.524Z,99135.34
2023-05-09T23:18:39.881Z,99134.56
2023-05-09T23:21:08.260Z,99133.22
2023-05-09T23:23:36.824Z,99127.97
2023-05-09T23:26:05.203Z,99126.63
2023-05-09T23:28:33.517Z,99134.44
2023-05-09T23:31:03.349Z,99123.97
2023-05-09T23:33:31.862Z,99124.59
2023-05-09T23:36:00.189Z,99122.94
2023-05-09T23:38:28.485Z,99116.06
2023-05-09T23:40:58.439Z,99109.50
2023-05-09T23:43:26.861Z,99115.34
2023-05-09T23:45:56.675Z,99107.63
2023-05-09T23:48:26.969Z,99104.34
2023-05-09T23:50:55.224Z,99098.00
2023-05-09T23:53:23.742Z,99100.25
2023-05-09T23:55:52.095Z,99090.09
2023-05-09T23:58:20.640Z,99092.03
